Ana Sayfa
METAR-TAF:

METAR-TAF

Havaalanları :

Pikeville, Kentucky, Amerika Birleşik Devletleri

Enlem: 37-33-42N, Boylam: 082-33-59W, yükseklik: 449 m

Güncel hava durumu gözlemi

Rapor saat 00:15 UTC de 33 dakika önce yapıldı.
Sakin rüzgar
Sıcaklık 15°C
Nem 59%
Basınç 1018 hPa
Görüş mesafesi: 16.1 km
11000 ft yükseklikte çok bulutlu

METAR: KPBX 240015Z AUTO 00000KT 10SM OVC110 15/07 A3006 RMK AO2 T01460070

Saat: 20:48 (00:48 UTC)


TAF: eksik

4.000'den fazla havaalanı için hava durumu gözlemleri ve tahminleri (METAR ve TAF raporları).

Kullanılabilir istasyonlar harita üzerinde sarı ve kırmızı noktalarla gösterilir.

İstasyonun adını görmek için fareyi noktanın üzerinde gezdirin.

Sonrasında hava gözlem ve tahminlerini görmek için tıklayın.

Haritayı değiştirmek için: yaklaştırmak için siyah artı işaretli yeşil düğmeye ve uzaklaştırmak için de eksi işaretli düğmeye hızla tıklayın; bitişik haritalar için yeşil okları kullanın.


METAR-TAF: